Time;durP1;ratioP1;P1;durP2;ratioP2;P2;SDS_P1;SDS_P2;PMS_P1;PMS_P2;Temp;Humidity;BMP_temperature;BMP_pressure;BME280_temperature;BME280_humidity;BME280_pressure;Samples;Min_cycle;Max_cycle;Signal;HPM_P1;HPM_P2
2022/08/10 00:01:41;;;;;;;4.18;2.42;;;29.40;47.30;;;;;;5101117;28;20448;-74
2022/08/10 00:04:07;;;;;;;4.28;2.45;;;29.20;46.60;;;;;;5103604;28;20031;-78
2022/08/10 00:06:32;;;;;;;3.60;2.30;;;28.60;47.40;;;;;;5108577;28;20486;-77
2022/08/10 00:08:58;;;;;;;3.63;2.20;;;28.80;48.20;;;;;;5093651;28;20451;-77
2022/08/10 00:11:24;;;;;;;3.78;2.20;;;29.10;47.80;;;;;;5094188;28;20110;-77
2022/08/10 00:13:50;;;;;;;6.28;2.60;;;29.40;47.90;;;;;;5096562;28;20123;-77
2022/08/10 00:16:16;;;;;;;4.28;2.35;;;29.60;47.70;;;;;;5102742;28;20030;-76
2022/08/10 00:18:43;;;;;;;4.05;2.20;;;29.80;47.70;;;;;;5113275;28;20028;-77
2022/08/10 00:21:09;;;;;;;3.75;2.20;;;29.80;47.30;;;;;;5110829;27;20051;-77
2022/08/10 00:23:37;;;;;;;6.75;2.38;;;29.20;47.30;;;;;;5109980;28;20055;-77
2022/08/10 00:26:04;;;;;;;4.28;2.38;;;29.10;48.20;;;;;;5103506;28;20098;-77
2022/08/10 00:28:30;;;;;;;4.68;2.22;;;29.20;48.20;;;;;;5085427;28;20036;-76
2022/08/10 00:30:56;;;;;;;5.05;2.53;;;29.20;47.90;;;;;;5097274;28;20016;-77
2022/08/10 00:33:21;;;;;;;3.53;2.30;;;28.70;49.20;;;;;;5093647;28;20082;-77
2022/08/10 00:35:48;;;;;;;5.55;2.40;;;28.70;50.10;;;;;;5093992;28;20027;-76
2022/08/10 00:38:14;;;;;;;3.67;2.45;;;28.90;49.80;;;;;;5079672;28;20032;-76
2022/08/10 00:40:39;;;;;;;3.92;2.50;;;29.00;49.50;;;;;;5096153;28;20032;-76
2022/08/10 00:43:06;;;;;;;4.30;2.70;;;29.00;49.30;;;;;;5100873;28;20088;-77
2022/08/10 00:45:32;;;;;;;4.25;2.50;;;29.00;49.40;;;;;;5096426;28;20028;-76
2022/08/10 00:47:58;;;;;;;4.53;2.65;;;28.70;48.70;;;;;;5093591;28;20020;-77
2022/08/10 00:50:24;;;;;;;5.30;2.30;;;28.10;49.10;;;;;;5102620;28;20058;-78
2022/08/10 00:52:50;;;;;;;4.03;2.60;;;27.60;49.70;;;;;;5111153;28;20031;-77
2022/08/10 00:55:17;;;;;;;4.25;2.58;;;27.70;50.40;;;;;;5113430;28;20470;-77
2022/08/10 00:57:43;;;;;;;3.97;2.72;;;28.10;50.30;;;;;;5099270;28;20463;-77
2022/08/10 01:00:09;;;;;;;4.05;2.50;;;28.40;49.70;;;;;;5094181;28;20043;-76
2022/08/10 01:02:35;;;;;;;7.60;2.95;;;28.50;49.50;;;;;;5112034;28;20152;-77
2022/08/10 01:05:08;;;;;;;5.70;2.60;;;28.60;49.60;;;;;;5113231;28;20036;-76
2022/08/10 01:07:41;;;;;;;4.03;2.25;;;28.70;49.40;;;;;;5105364;28;20023;-77
2022/08/10 01:10:11;;;;;;;5.70;2.50;;;28.60;49.70;;;;;;5101198;28;20024;-77
2022/08/10 01:12:59;;;;;;;6.15;2.70;;;28.70;50.60;;;;;;5109860;28;20088;-76
2022/08/10 01:15:53;;;;;;;7.53;2.65;;;28.50;49.90;;;;;;5096050;28;20020;-76
2022/08/10 01:18:38;;;;;;;4.25;2.72;;;28.40;50.10;;;;;;5093337;28;20020;-76
2022/08/10 01:21:58;;;;;;;5.30;2.50;;;27.70;50.80;;;;;;5075026;28;20101;-78
2022/08/10 01:24:47;;;;;;;3.55;2.60;;;27.60;52.00;;;;;;4932767;29;20129;-76
2022/08/10 01:27:24;;;;;;;4.32;2.80;;;27.90;50.70;;;;;;4933539;29;20047;-75
2022/08/10 01:30:07;;;;;;;4.43;2.60;;;27.70;50.70;;;;;;4927676;29;20095;-77
2022/08/10 01:32:46;;;;;;;3.72;2.47;;;27.10;52.00;;;;;;4914746;29;20063;-77
2022/08/10 01:35:27;;;;;;;3.63;2.50;;;27.00;52.40;;;;;;4922607;29;20043;-77
2022/08/10 01:38:07;;;;;;;3.70;2.70;;;27.40;52.10;;;;;;4933498;29;20047;-77
2022/08/10 01:40:38;;;;;;;5.43;3.00;;;27.50;51.20;;;;;;4932699;29;20059;-77
2022/08/10 01:43:08;;;;;;;4.15;2.70;;;27.40;50.90;;;;;;4932796;29;20040;-76
2022/08/10 01:45:39;;;;;;;3.75;2.67;;;27.60;51.90;;;;;;4918457;29;20023;-76
2022/08/10 01:48:29;;;;;;;4.05;2.60;;;27.80;51.40;;;;;;4934052;29;20188;-76
2022/08/10 01:51:10;;;;;;;;;;;28.00;51.30;;;;;;4932049;29;20091;-77
2022/08/10 01:53:55;;;;;;;4.90;3.10;;;28.10;51.10;;;;;;4929719;29;20421;-78
2022/08/10 01:56:23;;;;;;;6.75;2.72;;;28.20;51.20;;;;;;4926259;29;20530;-77
2022/08/10 01:59:10;;;;;;;4.22;2.72;;;27.50;50.80;;;;;;4942153;28;20494;-77
2022/08/10 02:01:49;;;;;;;4.78;3.20;;;27.30;51.40;;;;;;5047406;28;20028;-78
2022/08/10 02:04:16;;;;;;;3.97;2.90;;;27.50;51.70;;;;;;5111881;28;20097;-77
2022/08/10 02:06:50;;;;;;;8.23;2.70;;;27.70;52.00;;;;;;5112228;28;20020;-77
2022/08/10 02:09:23;;;;;;;4.40;2.80;;;28.00;51.80;;;;;;5106918;28;20035;-78
2022/08/10 02:11:51;;;;;;;5.00;2.80;;;28.10;51.40;;;;;;5093120;28;20149;-76
2022/08/10 02:14:18;;;;;;;4.47;3.00;;;27.80;51.50;;;;;;5095657;28;20036;-76
2022/08/10 02:16:47;;;;;;;6.22;3.10;;;27.50;50.60;;;;;;5086816;28;20032;-77
2022/08/10 02:19:17;;;;;;;4.28;2.90;;;27.10;52.10;;;;;;5104852;28;20027;-77
2022/08/10 02:21:45;;;;;;;5.47;2.92;;;27.40;52.20;;;;;;5096111;28;20447;-78
2022/08/10 02:24:13;;;;;;;3.45;2.72;;;27.70;51.60;;;;;;5096909;28;20024;-76
2022/08/10 02:26:43;;;;;;;4.60;2.78;;;28.00;51.40;;;;;;5074144;28;20128;-77
2022/08/10 02:29:14;;;;;;;4.53;2.88;;;27.90;51.40;;;;;;5098968;28;20482;-76
2022/08/10 02:31:41;;;;;;;4.53;2.80;;;28.10;51.50;;;;;;5113350;28;20537;-77
2022/08/10 02:34:11;;;;;;;4.65;2.80;;;28.20;51.40;;;;;;5093678;28;20386;-76
2022/08/10 02:36:43;;;;;;;5.57;2.88;;;27.70;50.60;;;;;;5115226;28;20106;-77
2022/08/10 02:39:12;;;;;;;6.22;2.90;;;27.20;51.90;;;;;;5090753;28;20127;-76
2022/08/10 02:41:41;;;;;;;4.18;2.85;;;27.20;52.30;;;;;;5096090;28;20024;-77
2022/08/10 02:44:20;;;;;;;4.70;2.90;;;27.50;52.10;;;;;;5101930;28;20019;-76
2022/08/10 02:46:50;;;;;;;4.55;2.80;;;27.40;51.90;;;;;;5106479;28;20051;-76
2022/08/10 02:49:23;;;;;;;4.90;3.33;;;27.10;51.10;;;;;;5110671;28;20023;-75
2022/08/10 02:52:04;;;;;;;4.95;2.90;;;27.20;51.90;;;;;;5116544;28;20051;-77
2022/08/10 02:54:34;;;;;;;4.88;2.85;;;27.50;51.60;;;;;;5104945;28;20040;-77
2022/08/10 02:57:14;;;;;;;5.65;2.75;;;27.60;51.70;;;;;;5095898;28;20028;-76
2022/08/10 02:59:44;;;;;;;6.95;3.10;;;27.70;51.20;;;;;;5102425;28;20072;-76
2022/08/10 03:02:13;;;;;;;;;;;27.30;50.30;;;;;;5111539;28;20028;-75
2022/08/10 03:04:46;;;;;;;4.60;3.08;;;26.90;50.90;;;;;;5114465;28;19923;-75
2022/08/10 03:07:16;;;;;;;4.65;3.28;;;27.00;50.70;;;;;;5095822;28;20025;-78
2022/08/10 03:09:44;;;;;;;4.35;2.60;;;26.80;50.60;;;;;;5103143;28;20148;-76
2022/08/10 03:12:12;;;;;;;5.10;3.25;;;27.00;50.40;;;;;;5111855;28;20019;-76
2022/08/10 03:14:39;;;;;;;5.15;2.65;;;27.40;51.10;;;;;;5094948;28;20036;-77
2022/08/10 03:17:06;;;;;;;5.75;3.05;;;27.50;51.10;;;;;;5106701;28;20410;-76
2022/08/10 03:19:33;;;;;;;7.13;2.88;;;27.80;50.40;;;;;;5107734;28;20027;-76
2022/08/10 03:22:01;;;;;;;6.00;3.28;;;27.80;50.10;;;;;;5108157;28;20067;-77
2022/08/10 03:24:28;;;;;;;5.10;3.20;;;27.70;49.50;;;;;;5113934;28;20027;-77
2022/08/10 03:26:54;;;;;;;4.03;2.70;;;27.60;50.10;;;;;;5115781;28;20020;-77
2022/08/10 03:29:22;;;;;;;6.60;3.13;;;27.60;49.90;;;;;;5104041;28;20028;-77
2022/08/10 03:31:49;;;;;;;5.82;3.00;;;27.40;50.70;;;;;;5094954;28;20051;-79
2022/08/10 03:34:18;;;;;;;4.75;2.75;;;27.30;51.20;;;;;;5101323;28;20034;-78
2022/08/10 03:36:44;;;;;;;4.88;2.80;;;27.20;51.30;;;;;;5097254;28;20024;-77
2022/08/10 03:39:11;;;;;;;6.10;2.85;;;26.80;50.80;;;;;;5094720;28;20028;-77
2022/08/10 03:41:47;;;;;;;4.90;3.25;;;26.90;51.40;;;;;;5105597;28;20019;-76
2022/08/10 03:44:19;;;;;;;7.30;2.70;;;26.70;51.80;;;;;;5094914;28;20020;-78
2022/08/10 03:46:46;;;;;;;6.53;3.03;;;26.70;51.70;;;;;;5096630;28;20031;-78
2022/08/10 03:49:13;;;;;;;6.47;3.25;;;26.80;51.50;;;;;;5094405;28;20043;-77
2022/08/10 03:51:40;;;;;;;7.57;3.22;;;26.90;51.50;;;;;;5104867;28;20051;-76
2022/08/10 03:54:06;;;;;;;5.05;3.15;;;27.00;51.00;;;;;;5088646;28;20044;-77
2022/08/10 03:56:34;;;;;;;4.72;3.17;;;27.10;50.80;;;;;;5094586;28;20023;-78
2022/08/10 03:59:00;;;;;;;7.57;2.95;;;27.10;51.30;;;;;;5097724;28;20391;-77
2022/08/10 04:01:27;;;;;;;5.70;3.05;;;27.20;51.20;;;;;;5101914;28;20023;-78
2022/08/10 04:03:53;;;;;;;7.80;3.00;;;27.20;50.90;;;;;;5113643;28;20031;-77
2022/08/10 04:06:19;;;;;;;6.65;3.28;;;27.20;51.50;;;;;;5080977;28;20040;-77
2022/08/10 04:08:45;;;;;;;5.60;3.20;;;27.20;51.50;;;;;;5098000;28;20024;-75
2022/08/10 04:11:13;;;;;;;4.47;3.20;;;27.30;51.40;;;;;;5110913;28;20027;-76
2022/08/10 04:13:38;;;;;;;6.10;3.40;;;27.10;51.20;;;;;;5115106;28;20118;-77
2022/08/10 04:16:08;;;;;;;5.78;3.33;;;27.10;51.40;;;;;;5114712;28;20145;-75
2022/08/10 04:18:34;;;;;;;5.07;3.57;;;27.20;51.60;;;;;;5133227;27;20060;-77
2022/08/10 04:21:22;;;;;;;5.70;3.60;;;27.30;51.40;;;;;;5135423;27;20022;-77
2022/08/10 04:23:51;;;;;;;8.35;3.75;;;27.30;51.50;;;;;;5128480;27;20027;-77
2022/08/10 04:26:17;;;;;;;6.32;3.58;;;27.30;52.00;;;;;;5094174;28;20042;-77
2022/08/10 04:28:43;;;;;;;5.15;3.20;;;27.30;51.90;;;;;;5113225;28;20024;-77
2022/08/10 04:31:14;;;;;;;4.70;3.28;;;27.20;52.00;;;;;;5114288;28;20035;-77
2022/08/10 04:33:44;;;;;;;7.57;3.20;;;27.20;52.00;;;;;;5114516;28;20040;-76
2022/08/10 04:36:11;;;;;;;7.22;3.45;;;27.20;51.80;;;;;;5113918;28;20027;-76
2022/08/10 04:38:39;;;;;;;6.47;3.58;;;27.30;52.00;;;;;;5108591;28;20039;-76
2022/08/10 04:41:05;;;;;;;5.38;3.10;;;27.40;52.60;;;;;;5100381;28;20020;-78
2022/08/10 04:43:31;;;;;;;5.35;3.10;;;27.40;52.40;;;;;;5102794;28;20065;-79
2022/08/10 04:45:56;;;;;;;5.13;3.20;;;27.30;52.70;;;;;;5112243;28;20031;-79
2022/08/10 04:48:23;;;;;;;6.07;3.20;;;27.30;52.70;;;;;;5112207;28;20031;-78
2022/08/10 04:50:49;;;;;;;3.97;2.97;;;27.30;52.70;;;;;;5100453;28;20040;-77
2022/08/10 04:53:15;;;;;;;8.95;4.38;;;26.60;52.20;;;;;;5092830;28;20054;-78
2022/08/10 04:55:41;;;;;;;8.85;3.83;;;26.50;54.30;;;;;;5097553;28;20016;-78
2022/08/10 04:58:06;;;;;;;7.10;3.78;;;26.70;54.00;;;;;;5106754;28;20497;-77
2022/08/10 05:00:32;;;;;;;6.82;3.38;;;27.20;53.50;;;;;;5113530;28;20077;-78
2022/08/10 05:02:58;;;;;;;6.53;3.17;;;27.50;53.10;;;;;;5113986;28;20102;-78
2022/08/10 05:05:23;;;;;;;5.78;3.40;;;27.50;52.80;;;;;;5113931;28;20107;-78
2022/08/10 05:07:49;;;;;;;5.13;3.53;;;27.70;52.50;;;;;;5114105;28;20029;-78
2022/08/10 05:10:15;;;;;;;6.75;3.38;;;27.90;52.50;;;;;;5114037;28;20488;-80
2022/08/10 05:12:41;;;;;;;5.28;2.55;;;28.00;52.50;;;;;;5114534;28;20020;-78
2022/08/10 05:15:07;;;;;;;5.95;2.67;;;28.20;48.90;;;;;;5113732;28;20027;-77
2022/08/10 05:17:34;;;;;;;5.07;2.42;;;28.30;50.00;;;;;;5113531;28;20046;-76
2022/08/10 05:20:00;;;;;;;5.15;2.60;;;28.40;49.90;;;;;;5113407;28;20027;-76
2022/08/10 05:22:26;;;;;;;7.57;2.63;;;28.40;50.00;;;;;;5113465;28;20022;-74
2022/08/10 05:24:51;;;;;;;4.25;2.20;;;28.40;49.40;;;;;;5113680;28;20023;-77
2022/08/10 05:27:17;;;;;;;8.48;2.58;;;28.10;48.40;;;;;;5113621;28;20034;-75
2022/08/10 05:29:43;;;;;;;5.05;2.50;;;28.20;49.10;;;;;;5113512;28;20016;-75
2022/08/10 05:32:09;;;;;;;7.25;2.50;;;27.80;48.40;;;;;;5113270;28;20024;-76
2022/08/10 05:34:35;;;;;;;4.85;2.40;;;27.50;49.60;;;;;;5113464;28;20024;-76
2022/08/10 05:37:01;;;;;;;4.47;2.20;;;27.80;49.10;;;;;;5113343;28;20024;-77
2022/08/10 05:39:27;;;;;;;3.88;2.22;;;28.10;48.90;;;;;;5113422;28;20093;-75
2022/08/10 05:41:54;;;;;;;5.38;2.20;;;27.90;48.60;;;;;;5113897;28;20016;-77
2022/08/10 05:44:21;;;;;;;6.22;2.33;;;27.00;49.00;;;;;;5113648;28;20474;-76
2022/08/10 05:46:48;;;;;;;4.68;2.30;;;27.00;49.90;;;;;;5112588;28;20033;-76
2022/08/10 05:49:13;;;;;;;4.13;2.30;;;27.20;49.50;;;;;;5113319;28;20377;-77
2022/08/10 05:51:39;;;;;;;5.22;2.75;;;27.20;48.90;;;;;;5113031;28;20483;-78
2022/08/10 05:54:13;;;;;;;5.00;2.30;;;27.40;49.50;;;;;;5112472;28;20036;-77
2022/08/10 05:56:41;;;;;;;4.43;2.35;;;27.70;49.00;;;;;;5113722;28;20371;-77
2022/08/10 05:59:09;;;;;;;4.55;2.55;;;27.90;48.90;;;;;;5113601;28;20102;-79
2022/08/10 06:01:41;;;;;;;4.88;2.13;;;27.80;48.50;;;;;;5113416;28;20555;-77
2022/08/10 06:04:10;;;;;;;6.97;2.47;;;27.10;49.40;;;;;;5113320;28;20102;-78
2022/08/10 06:06:37;;;;;;;8.05;2.90;;;27.30;49.90;;;;;;5095163;28;20458;-75
2022/08/10 06:09:05;;;;;;;5.78;2.03;;;28.00;49.00;;;;;;5113742;28;20375;-80
2022/08/10 06:11:32;;;;;;;5.63;2.53;;;28.00;48.70;;;;;;5115451;28;20020;-80
2022/08/10 06:16:44;;;;;;;4.18;2.40;;;27.50;48.10;;;;;;5117864;28;20442;-80
2022/08/10 06:19:10;;;;;;;6.50;2.20;;;26.80;49.60;;;;;;5099163;28;20036;-78
2022/08/10 06:21:37;;;;;;;7.50;2.17;;;27.00;49.20;;;;;;5117649;28;20020;-78
2022/08/10 06:24:06;;;;;;;3.55;2.22;;;27.30;49.00;;;;;;5117570;28;20431;-80
2022/08/10 06:26:32;;;;;;;4.60;2.40;;;27.90;48.60;;;;;;5117339;28;20095;-76
2022/08/10 06:29:10;;;;;;;5.97;2.47;;;28.00;48.60;;;;;;5116936;28;20062;-78
2022/08/10 06:31:39;;;;;;;3.67;2.28;;;28.40;48.00;;;;;;5117272;28;20068;-80
2022/08/10 06:34:07;;;;;;;5.35;2.40;;;28.30;47.70;;;;;;5099160;28;20027;-81
2022/08/10 06:36:34;;;;;;;3.67;2.05;;;28.30;48.20;;;;;;5117037;28;20022;-79
2022/08/10 06:39:00;;;;;;;3.75;2.33;;;28.20;48.20;;;;;;5117302;28;20042;-86
2022/08/10 06:41:29;;;;;;;4.05;2.40;;;28.10;48.40;;;;;;5116941;28;20019;-77
2022/08/10 06:44:00;;;;;;;3.40;2.35;;;28.20;47.50;;;;;;5117119;28;20505;-82
2022/08/10 06:46:29;;;;;;;5.85;2.45;;;28.10;48.20;;;;;;5116456;28;20378;-80
2022/08/10 06:48:58;;;;;;;6.68;2.53;;;28.00;48.70;;;;;;5116399;28;20023;-75
2022/08/10 06:51:32;;;;;;;4.65;2.30;;;28.10;48.50;;;;;;4760778;28;9999676;-83
2022/08/10 06:54:02;;;;;;;4.03;2.38;;;28.10;48.40;;;;;;5114215;28;20478;-79
2022/08/10 06:56:34;;;;;;;5.50;2.55;;;28.30;48.00;;;;;;5096593;28;20027;-85
2022/08/10 06:59:15;;;;;;;3.30;2.20;;;28.50;47.80;;;;;;5113275;28;20027;-80
2022/08/10 07:01:44;;;;;;;5.90;2.38;;;28.80;47.70;;;;;;5114096;28;20657;-76
2022/08/10 07:04:31;;;;;;;4.93;2.28;;;29.10;47.80;;;;;;5111411;28;20019;-76
2022/08/10 07:07:01;;;;;;;4.07;2.33;;;29.30;47.40;;;;;;5112792;28;20504;-78
2022/08/10 07:09:29;;;;;;;10.63;2.40;;;29.40;47.00;;;;;;5115641;28;20505;-80
2022/08/10 07:11:57;;;;;;;3.42;2.05;;;29.10;46.20;;;;;;5115286;28;20020;-84
2022/08/10 07:14:23;;;;;;;3.00;2.00;;;28.80;47.50;;;;;;5097200;28;20031;-82
2022/08/10 07:16:50;;;;;;;7.15;2.35;;;28.70;46.60;;;;;;5115585;28;20020;-84
2022/08/10 07:19:17;;;;;;;3.42;2.10;;;29.00;46.90;;;;;;5116310;28;20020;-80
2022/08/10 07:21:45;;;;;;;5.13;2.35;;;29.30;47.30;;;;;;5097961;28;20114;-80
2022/08/10 07:24:12;;;;;;;5.75;2.20;;;29.20;46.80;;;;;;5097984;28;20028;-78
2022/08/10 07:26:44;;;;;;;3.65;2.22;;;29.30;46.90;;;;;;5115843;28;20019;-80
2022/08/10 07:29:12;;;;;;;4.93;2.30;;;29.90;47.20;;;;;;5116675;28;20019;-82
2022/08/10 07:31:38;;;;;;;4.15;2.20;;;30.00;46.10;;;;;;5116130;28;20028;-81
2022/08/10 07:34:08;;;;;;;8.35;2.30;;;29.60;46.30;;;;;;5116080;28;20089;-78
2022/08/10 07:36:36;;;;;;;5.05;2.20;;;29.00;46.20;;;;;;5098428;28;20102;-83
2022/08/10 07:39:04;;;;;;;5.07;2.50;;;29.10;47.00;;;;;;5116136;28;20032;-79
2022/08/10 07:41:32;;;;;;;4.15;2.08;;;29.50;46.90;;;;;;5116489;28;20072;-80
2022/08/10 07:44:03;;;;;;;4.88;2.28;;;29.30;46.50;;;;;;5116248;28;20027;-79
2022/08/10 07:46:32;;;;;;;4.20;2.17;;;29.30;46.40;;;;;;5097387;28;20027;-76
2022/08/10 07:49:08;;;;;;;4.63;2.70;;;29.50;46.20;;;;;;5115164;28;20053;-81
2022/08/10 07:51:36;;;;;;;4.90;2.17;;;29.80;46.70;;;;;;5116247;28;20142;-82
2022/08/10 07:54:04;;;;;;;4.22;2.05;;;30.10;46.30;;;;;;5115410;28;20042;-82
2022/08/10 07:56:33;;;;;;;6.22;2.40;;;30.10;46.10;;;;;;5116325;28;20015;-81
2022/08/10 07:59:16;;;;;;;6.53;2.15;;;30.10;45.60;;;;;;5097438;28;20035;-82
2022/08/10 08:01:49;;;;;;;5.38;2.20;;;30.00;46.00;;;;;;5097337;28;20015;-89
2022/08/10 08:04:17;;;;;;;5.07;2.25;;;30.20;45.10;;;;;;4742905;28;9999894;-75
2022/08/10 08:06:44;;;;;;;3.72;2.20;;;30.60;45.50;;;;;;5111219;28;20088;-74
2022/08/10 08:09:10;;;;;;;3.63;2.08;;;30.80;45.40;;;;;;5110990;28;20024;-75
2022/08/10 08:11:38;;;;;;;5.15;2.17;;;30.80;45.30;;;;;;5109761;28;20043;-77
2022/08/10 08:14:06;;;;;;;6.72;2.22;;;31.00;46.00;;;;;;5112655;28;20119;-76
2022/08/10 08:16:35;;;;;;;5.93;2.40;;;31.30;46.50;;;;;;5115397;28;20031;-81
2022/08/10 08:19:02;;;;;;;4.05;2.00;;;31.50;44.50;;;;;;5114272;28;20023;-79
2022/08/10 08:21:29;;;;;;;4.03;2.10;;;30.90;43.90;;;;;;5095387;28;20028;-76
2022/08/10 08:23:56;;;;;;;3.25;1.90;;;30.70;45.80;;;;;;5113288;28;20019;-80
2022/08/10 08:26:23;;;;;;;4.07;2.00;;;30.80;45.60;;;;;;5112791;28;20012;-76
2022/08/10 08:28:51;;;;;;;6.28;2.10;;;30.70;44.90;;;;;;5113797;28;20417;-74
2022/08/10 08:31:19;;;;;;;3.60;1.75;;;30.50;45.30;;;;;;5114112;28;20020;-76
2022/08/10 08:33:45;;;;;;;3.75;1.90;;;30.90;46.40;;;;;;5113658;28;20031;-75
2022/08/10 08:36:14;;;;;;;5.40;2.20;;;31.50;45.20;;;;;;5114814;28;20012;-81
2022/08/10 08:38:41;;;;;;;4.55;1.90;;;31.70;44.30;;;;;;5114605;28;20370;-74
2022/08/10 08:41:46;;;;;;;3.78;2.03;;;31.70;43.60;;;;;;5115191;28;20081;-75
2022/08/10 08:44:59;;;;;;;3.92;1.80;;;31.70;44.30;;;;;;5114723;28;20030;-77
2022/08/10 08:47:52;;;;;;;4.18;2.05;;;31.50;43.10;;;;;;5012203;28;20066;-74
2022/08/10 08:50:41;;;;;;;3.50;1.77;;;31.40;44.30;;;;;;5011788;28;20034;-75
2022/08/10 08:53:43;;;;;;;4.40;2.00;;;31.50;43.10;;;;;;5012330;28;20038;-80
2022/08/10 08:56:23;;;;;;;5.10;1.90;;;31.70;43.20;;;;;;5012169;28;20544;-78
2022/08/10 08:58:49;;;;;;;4.03;1.80;;;31.70;42.30;;;;;;5011879;28;20546;-77
2022/08/10 09:01:33;;;;;;;5.18;1.90;;;31.10;44.10;;;;;;5012055;28;20059;-79
2022/08/10 09:04:28;;;;;;;4.13;1.80;;;31.20;44.00;;;;;;5011923;28;20045;-76
2022/08/10 09:07:21;;;;;;;3.00;1.75;;;31.80;43.30;;;;;;5011567;28;20033;-76
2022/08/10 09:10:05;;;;;;;3.63;1.80;;;32.40;42.10;;;;;;5012151;28;20041;-85
2022/08/10 09:12:42;;;;;;;4.93;1.70;;;32.20;41.80;;;;;;5012181;28;20030;-78
2022/08/10 09:15:29;;;;;;;3.03;1.80;;;32.20;41.70;;;;;;5012242;28;20034;-80
2022/08/10 09:18:21;;;;;;;4.38;1.80;;;31.80;42.40;;;;;;5012327;28;20580;-78
2022/08/10 09:21:03;;;;;;;3.00;1.90;;;31.80;42.30;;;;;;4995669;28;20030;-84
2022/08/10 09:23:51;;;;;;;4.15;2.13;;;32.10;42.20;;;;;;5060404;28;20502;-85
2022/08/10 09:26:24;;;;;;;3.33;1.73;;;32.10;42.10;;;;;;5100888;28;20133;-80
2022/08/10 09:28:53;;;;;;;4.13;1.80;;;31.80;42.50;;;;;;5114560;28;20012;-80
2022/08/10 09:31:23;;;;;;;4.05;1.90;;;31.70;42.50;;;;;;5114248;28;20100;-74
2022/08/10 09:33:55;;;;;;;3.28;1.80;;;31.70;42.00;;;;;;5114279;28;20044;-77
2022/08/10 09:36:30;;;;;;;5.00;1.85;;;31.80;42.50;;;;;;5114024;28;20035;-77
2022/08/10 09:39:01;;;;;;;3.67;1.70;;;32.00;42.00;;;;;;5114517;28;20047;-85
2022/08/10 09:41:36;;;;;;;3.95;1.80;;;32.00;42.80;;;;;;5095260;28;20541;-81
2022/08/10 09:44:02;;;;;;;3.50;1.95;;;32.10;43.70;;;;;;5114224;28;20027;-76
2022/08/10 09:46:45;;;;;;;3.95;1.70;;;32.40;43.70;;;;;;5117649;28;20047;-75
2022/08/10 09:49:17;;;;;;;3.95;2.00;;;32.90;41.50;;;;;;5118170;28;20442;-74
2022/08/10 09:52:06;;;;;;;3.75;1.73;;;33.20;42.20;;;;;;5117831;28;20051;-82
2022/08/10 09:54:44;;;;;;;3.97;1.88;;;33.10;40.80;;;;;;5118319;28;20035;-78
2022/08/10 09:57:15;;;;;;;3.30;1.80;;;32.40;41.90;;;;;;5118577;28;20019;-80
2022/08/10 09:59:54;;;;;;;6.25;1.90;;;32.70;41.80;;;;;;5118161;28;20458;-78
2022/08/10 10:02:28;;;;;;;3.65;1.80;;;32.60;41.60;;;;;;5117966;28;20148;-76
2022/08/10 10:05:07;;;;;;;4.43;1.80;;;32.80;41.60;;;;;;5099657;28;20020;-78
2022/08/10 10:07:41;;;;;;;4.75;1.80;;;33.00;41.50;;;;;;5117473;28;20031;-79
2022/08/10 10:10:07;;;;;;;3.45;1.88;;;33.20;42.00;;;;;;5115487;28;20055;-82
2022/08/10 10:12:43;;;;;;;6.70;1.70;;;33.40;41.60;;;;;;5097700;28;20110;-83
2022/08/10 10:15:27;;;;;;;3.10;1.70;;;33.10;40.30;;;;;;5090506;28;20038;-77
2022/08/10 10:18:01;;;;;;;5.78;1.75;;;31.30;41.40;;;;;;5107465;28;20031;-82
2022/08/10 10:21:05;;;;;;;3.70;1.85;;;31.80;41.80;;;;;;5089509;28;20048;-74
2022/08/10 10:23:46;;;;;;;3.92;1.80;;;32.50;41.60;;;;;;5100397;28;20503;-76
2022/08/10 10:26:33;;;;;;;2.72;1.80;;;32.90;41.40;;;;;;5096711;28;20027;-81
2022/08/10 10:29:16;;;;;;;4.40;1.80;;;33.20;40.90;;;;;;5091965;28;20039;-73
2022/08/10 10:31:55;;;;;;;3.28;1.60;;;32.90;40.60;;;;;;5108959;28;20047;-75
2022/08/10 10:34:44;;;;;;;7.57;1.90;;;32.80;40.30;;;;;;5115977;28;20058;-75
2022/08/10 10:37:12;;;;;;;3.88;1.90;;;33.10;41.10;;;;;;5108030;28;20285;-75
2022/08/10 10:39:45;;;;;;;2.92;1.80;;;33.60;41.30;;;;;;5114249;28;20084;-75
2022/08/10 10:42:39;;;;;;;3.00;1.70;;;33.80;41.60;;;;;;5116677;28;20094;-77
2022/08/10 10:45:14;;;;;;;4.95;2.20;;;34.10;41.00;;;;;;5116666;28;20035;-81
2022/08/10 10:48:22;;;;;;;3.88;1.80;;;33.80;40.30;;;;;;5115339;28;20027;-77
2022/08/10 10:51:05;;;;;;;3.75;1.77;;;33.90;40.60;;;;;;5116603;28;20130;-90
2022/08/10 10:54:01;;;;;;;3.25;1.98;;;34.20;39.90;;;;;;5116891;28;20032;-78
2022/08/10 10:56:50;;;;;;;3.10;1.70;;;34.20;40.60;;;;;;5103848;28;20028;-76
2022/08/10 10:59:43;;;;;;;3.92;1.50;;;33.90;39.80;;;;;;5115584;28;20067;-81
2022/08/10 11:02:51;;;;;;;3.33;1.77;;;33.90;39.70;;;;;;5117400;28;20039;-81
2022/08/10 11:05:54;;;;;;;3.92;1.70;;;33.70;39.80;;;;;;5116475;28;20027;-77
2022/08/10 11:08:24;;;;;;;4.65;1.80;;;33.70;39.00;;;;;;5116409;28;20062;-78
2022/08/10 11:10:54;;;;;;;3.03;1.58;;;33.10;39.80;;;;;;5116644;28;20028;-81
2022/08/10 11:13:43;;;;;;;3.20;1.67;;;33.20;40.70;;;;;;5112873;28;20032;-77
2022/08/10 11:16:52;;;;;;;3.88;1.60;;;32.90;39.50;;;;;;5097632;28;20359;-75
2022/08/10 11:19:40;;;;;;;3.50;1.60;;;33.10;42.30;;;;;;4994439;28;20030;-89
2022/08/10 11:22:41;;;;;;;6.78;1.80;;;33.50;40.20;;;;;;4994710;28;20026;-79
2022/08/10 11:25:20;;;;;;;3.72;1.60;;;33.60;40.80;;;;;;4955464;29;20394;-79
2022/08/10 11:27:51;;;;;;;4.75;1.70;;;33.70;41.30;;;;;;4939852;29;20024;-79
2022/08/10 11:30:43;;;;;;;3.78;1.90;;;33.60;39.70;;;;;;4955527;29;20070;-78
2022/08/10 11:33:27;;;;;;;5.00;1.73;;;33.70;39.50;;;;;;4955186;29;20051;-75
2022/08/10 11:36:00;;;;;;;2.67;1.50;;;34.10;39.60;;;;;;4955149;29;20065;-76
2022/08/10 11:38:45;;;;;;;3.55;1.50;;;34.50;40.20;;;;;;4955371;29;20602;-79
2022/08/10 11:41:37;;;;;;;2.83;1.60;;;34.40;38.90;;;;;;4939139;29;20071;-80
2022/08/10 11:44:09;;;;;;;3.03;1.60;;;34.20;38.10;;;;;;4955466;28;20035;-75
2022/08/10 11:46:41;;;;;;;3.42;1.60;;;34.00;38.00;;;;;;4954754;29;20028;-77
2022/08/10 11:49:30;;;;;;;3.20;1.48;;;34.10;38.10;;;;;;4966597;28;20108;-78
2022/08/10 11:52:18;;;;;;;12.45;1.58;;;34.10;37.90;;;;;;5032753;28;20082;-80
2022/08/10 11:54:51;;;;;;;5.32;1.50;;;32.80;38.20;;;;;;5017188;28;20038;-81
2022/08/10 11:57:18;;;;;;;4.78;1.40;;;32.20;39.10;;;;;;5033167;28;20395;-79
2022/08/10 11:59:55;;;;;;;3.83;1.60;;;32.80;39.10;;;;;;5032768;28;20416;-80
2022/08/10 12:02:45;;;;;;;3.53;1.50;;;33.60;38.70;;;;;;5075586;28;20514;-79
2022/08/10 12:05:17;;;;;;;3.13;1.60;;;34.20;38.60;;;;;;5076572;28;20080;-76
2022/08/10 12:07:50;;;;;;;3.00;1.50;;;34.70;38.10;;;;;;5094621;28;20375;-77
2022/08/10 12:10:18;;;;;;;4.57;1.50;;;34.60;37.90;;;;;;5094935;28;20031;-82
2022/08/10 12:13:07;;;;;;;2.40;1.40;;;34.00;37.90;;;;;;5077348;28;20037;-85
2022/08/10 12:16:06;;;;;;;3.53;1.73;;;34.00;38.30;;;;;;5077213;28;20471;-81
2022/08/10 12:18:44;;;;;;;6.40;1.57;;;33.30;38.10;;;;;;5071010;28;20031;-78
2022/08/10 12:21:32;;;;;;;3.95;1.60;;;33.50;38.90;;;;;;5092602;28;20032;-88
2022/08/10 12:24:24;;;;;;;4.07;1.50;;;34.10;37.80;;;;;;5094815;28;20081;-76
2022/08/10 12:27:01;;;;;;;2.50;1.45;;;34.50;37.70;;;;;;5093643;28;20040;-81
2022/08/10 12:29:36;;;;;;;5.60;1.65;;;34.90;38.20;;;;;;5094720;28;20020;-78
2022/08/10 12:32:26;;;;;;;2.90;1.50;;;35.30;38.00;;;;;;5094307;28;20030;-76
2022/08/10 12:35:00;;;;;;;3.65;1.50;;;34.90;37.30;;;;;;4992726;28;20053;-77
2022/08/10 12:37:30;;;;;;;3.33;1.50;;;35.10;38.70;;;;;;4993945;28;20560;-86
2022/08/10 12:40:12;;;;;;;;;;;34.20;38.20;;;;;;4993640;28;20047;-78
2022/08/10 12:42:47;;;;;;;2.63;1.40;;;33.70;38.30;;;;;;4993194;28;20409;-81
2022/08/10 12:45:24;;;;;;;4.57;1.60;;;34.00;38.50;;;;;;4976357;28;20042;-77
2022/08/10 12:48:09;;;;;;;2.88;1.52;;;34.00;38.90;;;;;;4992521;28;20022;-76
2022/08/10 12:50:52;;;;;;;2.40;1.40;;;34.30;38.70;;;;;;4992468;28;20030;-78
2022/08/10 12:53:51;;;;;;;5.22;1.50;;;34.00;38.50;;;;;;4976129;28;20042;-78
2022/08/10 12:56:25;;;;;;;4.10;1.60;;;34.40;39.00;;;;;;4992636;28;20034;-85
2022/08/10 12:58:53;;;;;;;3.65;1.60;;;34.40;38.20;;;;;;4976653;28;20034;-76
2022/08/10 13:01:24;;;;;;;2.92;1.80;;;34.20;38.10;;;;;;4976207;28;20154;-76
2022/08/10 13:03:53;;;;;;;2.75;1.50;;;34.50;38.30;;;;;;4992403;28;20031;-76
2022/08/10 13:06:20;;;;;;;3.17;1.60;;;34.80;38.40;;;;;;4992235;28;20456;-76
2022/08/10 13:11:32;;;;;;;4.28;1.70;;;35.40;38.50;;;;;;5020978;28;20036;-79
2022/08/10 13:14:05;;;;;;;2.95;1.70;;;35.50;38.10;;;;;;5072867;28;20036;-81
2022/08/10 13:16:33;;;;;;;3.63;1.60;;;35.40;38.30;;;;;;5073524;28;20468;-79
2022/08/10 13:19:02;;;;;;;2.10;1.30;;;34.90;38.50;;;;;;5072998;28;20028;-79
2022/08/10 13:21:36;;;;;;;4.40;1.65;;;34.90;37.90;;;;;;5072987;28;20100;-79
2022/08/10 13:24:16;;;;;;;3.33;1.65;;;34.90;37.90;;;;;;5073775;28;20028;-78
2022/08/10 13:26:55;;;;;;;3.95;1.80;;;34.40;37.50;;;;;;5073379;28;20036;-80